createdAt,value
2023-11-07T00:02:05.488Z,18.70
2023-11-07T00:04:32.557Z,18.80
2023-11-07T00:07:02.744Z,19.00
2023-11-07T00:09:29.558Z,18.90
2023-11-07T00:11:56.737Z,19.00
2023-11-07T00:14:24.093Z,18.90
2023-11-07T00:16:51.519Z,18.80
2023-11-07T00:19:18.551Z,18.80
2023-11-07T00:21:45.517Z,19.80
2023-11-07T00:24:14.600Z,19.20
2023-11-07T00:26:42.055Z,19.30
2023-11-07T00:29:08.875Z,19.40
2023-11-07T00:31:35.797Z,19.70
2023-11-07T00:34:03.049Z,20.10
2023-11-07T00:36:29.859Z,21.00
2023-11-07T00:38:58.319Z,20.00
2023-11-07T00:41:25.256Z,19.80
2023-11-07T00:43:52.150Z,19.80
2023-11-07T00:46:19.817Z,20.10
2023-11-07T00:48:46.661Z,20.00
2023-11-07T00:51:13.627Z,20.10
2023-11-07T00:53:40.580Z,20.20
2023-11-07T00:56:09.275Z,20.10
2023-11-07T00:58:36.306Z,20.00
2023-11-07T01:01:03.184Z,20.10
2023-11-07T01:03:30.110Z,20.40
2023-11-07T01:05:57.049Z,20.20
2023-11-07T01:08:23.888Z,20.30
2023-11-07T01:10:51.542Z,20.50
2023-11-07T01:13:18.399Z,20.50
2023-11-07T01:15:46.146Z,20.60
2023-11-07T01:18:13.451Z,20.70
2023-11-07T01:20:40.473Z,20.60
2023-11-07T01:23:07.343Z,20.80
2023-11-07T01:25:34.184Z,20.40
2023-11-07T01:28:00.940Z,20.40
2023-11-07T01:30:28.834Z,20.70
2023-11-07T01:32:56.667Z,20.50
2023-11-07T01:35:23.569Z,20.50
2023-11-07T01:37:52.213Z,20.40
2023-11-07T01:40:19.120Z,20.40
2023-11-07T01:42:46.938Z,20.40
2023-11-07T01:45:13.919Z,21.20
2023-11-07T01:47:42.401Z,20.60
2023-11-07T01:50:13.413Z,20.60
2023-11-07T01:52:41.627Z,20.50
2023-11-07T01:55:12.172Z,20.50
2023-11-07T01:57:47.166Z,20.70
2023-11-07T02:00:15.081Z,20.70
2023-11-07T02:02:43.215Z,20.80
2023-11-07T02:05:11.126Z,20.90
2023-11-07T02:07:41.519Z,20.90
2023-11-07T02:10:10.454Z,21.10
2023-11-07T02:12:37.317Z,21.30
2023-11-07T02:15:32.449Z,21.30
2023-11-07T02:17:59.592Z,20.90
2023-11-07T02:20:26.655Z,21.20
2023-11-07T02:23:23.223Z,21.90
2023-11-07T02:25:53.120Z,21.00
2023-11-07T02:28:20.140Z,21.60
2023-11-07T02:30:47.090Z,22.50
2023-11-07T02:33:15.541Z,22.00
2023-11-07T02:35:42.769Z,21.00
2023-11-07T02:38:09.974Z,22.30
2023-11-07T02:40:36.762Z,22.40
2023-11-07T02:43:05.524Z,22.40
2023-11-07T02:45:34.110Z,22.40
2023-11-07T02:48:00.956Z,22.50
2023-11-07T02:50:28.681Z,22.60
2023-11-07T02:52:55.567Z,22.80
2023-11-07T02:55:22.651Z,22.70
2023-11-07T02:57:49.420Z,22.70
2023-11-07T03:00:16.718Z,22.80
2023-11-07T03:02:44.064Z,22.70
2023-11-07T03:05:10.991Z,22.70
2023-11-07T03:07:37.878Z,22.90
2023-11-07T03:10:06.710Z,23.40
2023-11-07T03:12:33.717Z,22.70
2023-11-07T03:15:00.745Z,22.80
2023-11-07T03:17:27.667Z,23.00
2023-11-07T03:19:54.683Z,22.80
2023-11-07T03:22:23.117Z,22.80
2023-11-07T03:24:50.040Z,22.80
2023-11-07T03:27:17.453Z,22.90
2023-11-07T03:29:44.548Z,23.00
2023-11-07T03:32:11.480Z,23.00
2023-11-07T03:34:38.306Z,23.10
2023-11-07T03:37:05.944Z,23.10
2023-11-07T03:39:32.894Z,23.10
2023-11-07T03:42:00.895Z,23.40
2023-11-07T03:44:28.318Z,23.20
2023-11-07T03:46:55.204Z,23.30
2023-11-07T03:49:22.111Z,23.40
2023-11-07T03:51:49.519Z,23.40
2023-11-07T03:54:16.609Z,23.70
2023-11-07T03:56:47.015Z,23.40
2023-11-07T03:59:14.092Z,23.30
2023-11-07T04:01:41.235Z,23.40
2023-11-07T04:04:08.413Z,23.40
2023-11-07T04:06:35.488Z,23.40
2023-11-07T04:09:02.449Z,23.20
2023-11-07T04:11:29.278Z,23.20
2023-11-07T04:13:56.108Z,23.20
2023-11-07T04:16:23.575Z,23.30
2023-11-07T04:18:50.833Z,23.10
2023-11-07T04:21:18.731Z,24.00
2023-11-07T04:23:45.548Z,22.90
2023-11-07T04:26:12.866Z,22.90
2023-11-07T04:28:40.562Z,22.90
2023-11-07T04:31:08.753Z,22.80
2023-11-07T04:33:35.921Z,22.80
2023-11-07T04:36:03.175Z,22.80
2023-11-07T04:38:31.545Z,22.70
2023-11-07T04:40:59.022Z,22.70
2023-11-07T04:43:27.303Z,22.80
2023-11-07T04:45:54.124Z,22.70
2023-11-07T04:48:21.691Z,22.70
2023-11-07T04:50:48.660Z,22.80
2023-11-07T04:53:15.442Z,23.10
2023-11-07T04:55:42.262Z,23.00
2023-11-07T04:58:09.013Z,23.10
2023-11-07T05:00:36.160Z,22.90
2023-11-07T05:03:03.204Z,23.00
2023-11-07T05:05:31.540Z,23.10
2023-11-07T05:07:58.654Z,22.90
2023-11-07T05:10:25.673Z,22.80
2023-11-07T05:12:52.515Z,22.80
2023-11-07T05:15:19.390Z,22.80
2023-11-07T05:17:46.362Z,23.00
2023-11-07T05:20:14.975Z,22.90
2023-11-07T05:22:42.600Z,23.30
2023-11-07T05:25:10.562Z,23.00
2023-11-07T05:27:37.330Z,23.00
2023-11-07T05:30:05.032Z,23.10
2023-11-07T05:32:31.852Z,23.00
2023-11-07T05:34:58.829Z,23.30
2023-11-07T05:37:25.732Z,23.30
2023-11-07T05:39:52.646Z,23.70
2023-11-07T05:42:19.673Z,23.50
2023-11-07T05:44:46.943Z,23.70
2023-11-07T05:47:14.119Z,23.70
2023-11-07T05:49:41.967Z,23.90
2023-11-07T05:52:08.827Z,24.00
2023-11-07T05:54:35.597Z,25.00
2023-11-07T05:57:02.978Z,23.90
2023-11-07T05:59:29.824Z,23.90
2023-11-07T06:01:56.757Z,24.00
2023-11-07T06:04:37.507Z,23.90
2023-11-07T06:07:04.788Z,23.80
2023-11-07T06:09:32.508Z,23.90
2023-11-07T06:11:59.519Z,24.00
2023-11-07T06:14:26.444Z,24.30
2023-11-07T06:16:56.093Z,24.30
2023-11-07T06:19:23.677Z,24.00
2023-11-07T06:21:51.151Z,24.10
2023-11-07T06:24:18.106Z,24.10
2023-11-07T06:26:47.450Z,23.90
2023-11-07T06:29:16.035Z,24.20
2023-11-07T06:31:46.867Z,24.00
2023-11-07T06:34:17.575Z,24.00
2023-11-07T06:36:44.549Z,24.10
2023-11-07T06:39:13.151Z,24.20
2023-11-07T06:41:40.515Z,24.20
2023-11-07T06:44:09.936Z,25.50
2023-11-07T06:46:40.253Z,24.60
2023-11-07T06:49:08.428Z,24.90
2023-11-07T06:51:35.687Z,25.10
2023-11-07T06:54:05.872Z,25.20
2023-11-07T06:56:33.023Z,25.30
2023-11-07T06:58:59.886Z,25.20
2023-11-07T07:01:29.203Z,25.10
2023-11-07T07:03:56.538Z,25.10
2023-11-07T07:06:24.997Z,25.10
2023-11-07T07:08:52.747Z,25.30
2023-11-07T07:11:22.593Z,25.20
2023-11-07T07:13:49.472Z,25.60
2023-11-07T07:16:17.975Z,26.90
2023-11-07T07:18:46.100Z,28.50
2023-11-07T07:21:14.314Z,30.10
2023-11-07T07:23:48.290Z,31.20
2023-11-07T07:26:17.753Z,32.00
2023-11-07T07:28:44.591Z,32.10
2023-11-07T07:31:12.086Z,32.20
2023-11-07T07:33:39.739Z,31.20
2023-11-07T07:36:12.463Z,30.00
2023-11-07T07:38:46.040Z,29.60
2023-11-07T07:41:14.240Z,28.20
2023-11-07T07:43:41.449Z,26.00
2023-11-07T07:46:08.560Z,24.50
2023-11-07T07:48:35.663Z,21.50
2023-11-07T07:51:07.669Z,21.70
2023-11-07T07:53:35.650Z,20.70
2023-11-07T07:56:02.730Z,20.90
2023-11-07T07:58:29.818Z,20.10
2023-11-07T08:00:56.875Z,18.50
2023-11-07T08:03:24.235Z,16.50
2023-11-07T08:05:52.857Z,15.10
2023-11-07T08:08:19.935Z,14.10
2023-11-07T08:10:50.037Z,13.10
2023-11-07T08:13:18.154Z,11.80
2023-11-07T08:15:45.380Z,11.70
2023-11-07T08:18:12.693Z,11.70
2023-11-07T08:20:40.667Z,12.50
2023-11-07T08:23:07.852Z,12.20
2023-11-07T08:25:35.491Z,12.00
2023-11-07T08:28:08.150Z,11.90
2023-11-07T08:30:35.570Z,11.80
2023-11-07T08:33:04.078Z,11.60
2023-11-07T08:35:32.227Z,11.30
2023-11-07T08:37:59.209Z,11.40
2023-11-07T08:40:26.417Z,11.60
2023-11-07T08:42:53.981Z,11.60
2023-11-07T08:45:22.341Z,11.50
2023-11-07T08:47:52.428Z,11.60
2023-11-07T08:50:22.090Z,11.30
2023-11-07T08:52:51.386Z,11.20
2023-11-07T08:55:19.482Z,11.40
2023-11-07T08:57:53.037Z,11.70
2023-11-07T09:00:23.560Z,11.80
2023-11-07T09:02:51.680Z,11.90
2023-11-07T09:05:19.061Z,11.70
2023-11-07T09:07:46.913Z,11.70
2023-11-07T09:10:14.177Z,11.50
2023-11-07T09:12:43.344Z,11.20
2023-11-07T09:15:12.801Z,11.40
2023-11-07T09:17:41.156Z,11.50
2023-11-07T09:20:16.496Z,11.40
2023-11-07T09:22:44.746Z,11.20
2023-11-07T09:25:15.470Z,11.10
2023-11-07T09:27:42.833Z,10.70
2023-11-07T09:30:11.766Z,10.60
2023-11-07T09:32:45.821Z,10.70
2023-11-07T09:35:13.008Z,10.70
2023-11-07T09:37:43.068Z,10.70
2023-11-07T09:40:22.332Z,10.70
2023-11-07T09:42:52.278Z,10.40
2023-11-07T09:45:20.874Z,10.30
2023-11-07T09:47:50.213Z,10.10
2023-11-07T09:50:18.918Z,10.00
2023-11-07T09:52:48.850Z,10.10
2023-11-07T09:55:17.557Z,10.30
2023-11-07T09:58:05.165Z,10.10
2023-11-07T10:00:44.843Z,9.90
2023-11-07T10:03:12.932Z,9.60
2023-11-07T10:05:41.451Z,9.30
2023-11-07T10:08:08.760Z,8.70
2023-11-07T10:10:36.160Z,8.60
2023-11-07T10:13:12.272Z,8.30
2023-11-07T10:15:40.861Z,8.20
2023-11-07T10:18:10.932Z,8.20
2023-11-07T10:20:54.770Z,8.20
2023-11-07T10:23:22.540Z,7.80
2023-11-07T10:25:51.729Z,8.00
2023-11-07T10:28:24.201Z,7.80
2023-11-07T10:30:52.033Z,7.40
2023-11-07T10:33:26.330Z,6.80
2023-11-07T10:36:00.656Z,5.20
2023-11-07T10:38:30.202Z,5.20
2023-11-07T10:40:57.525Z,5.10
2023-11-07T10:43:40.519Z,2.90
2023-11-07T10:46:10.192Z,2.80
2023-11-07T10:48:42.717Z,1.40
2023-11-07T10:51:12.666Z,2.00
2023-11-07T10:53:44.457Z,1.50
2023-11-07T10:56:17.541Z,1.10
2023-11-07T10:58:54.647Z,1.00
2023-11-07T11:01:21.922Z,1.00
2023-11-07T11:03:52.102Z,1.00
2023-11-07T11:06:24.664Z,1.00
2023-11-07T11:08:58.360Z,1.00
2023-11-07T11:11:28.902Z,1.00
2023-11-07T11:13:56.877Z,1.00
2023-11-07T11:16:25.380Z,1.00
2023-11-07T11:19:02.957Z,1.00
2023-11-07T11:21:42.070Z,1.00
2023-11-07T11:24:22.739Z,1.00
2023-11-07T11:27:15.348Z,1.00
2023-11-07T11:29:50.318Z,1.00
2023-11-07T11:32:30.835Z,1.00
2023-11-07T11:35:19.146Z,1.00
2023-11-07T11:38:13.948Z,1.00
2023-11-07T11:41:01.920Z,1.00
2023-11-07T11:43:33.352Z,1.00
2023-11-07T11:46:22.833Z,1.00
2023-11-07T11:48:53.589Z,1.00
2023-11-07T11:51:38.428Z,1.00
2023-11-07T11:54:17.818Z,1.00
2023-11-07T11:56:51.321Z,1.00
2023-11-07T11:59:26.112Z,1.00
2023-11-07T12:02:01.667Z,1.00
2023-11-07T12:04:33.673Z,1.00
2023-11-07T12:07:16.112Z,1.00
2023-11-07T12:09:57.402Z,1.00
2023-11-07T12:12:26.164Z,1.00
2023-11-07T12:14:56.040Z,1.00
2023-11-07T12:17:24.507Z,1.00
2023-11-07T12:20:07.821Z,1.00
2023-11-07T12:22:35.665Z,1.00
2023-11-07T12:25:21.452Z,1.00
2023-11-07T12:27:58.199Z,1.00
2023-11-07T12:30:25.497Z,1.00
2023-11-07T12:33:07.666Z,1.00
2023-11-07T12:35:34.717Z,1.00
2023-11-07T12:38:07.409Z,1.00
2023-11-07T12:40:36.423Z,1.00
2023-11-07T12:43:10.647Z,1.00
2023-11-07T12:45:39.678Z,1.00
2023-11-07T12:48:11.154Z,1.00
2023-11-07T12:50:44.449Z,1.00
2023-11-07T12:53:13.708Z,1.00
2023-11-07T12:55:40.782Z,1.50
2023-11-07T12:58:08.631Z,1.80
2023-11-07T13:00:58.307Z,2.20
2023-11-07T13:03:29.415Z,2.40
2023-11-07T13:06:05.764Z,2.90
2023-11-07T13:08:35.717Z,3.00
2023-11-07T13:11:10.732Z,3.20
2023-11-07T13:13:38.304Z,3.20
2023-11-07T13:16:06.627Z,3.50
2023-11-07T13:18:33.716Z,3.70
2023-11-07T13:21:00.876Z,4.00
2023-11-07T13:23:27.869Z,4.20
2023-11-07T13:25:54.789Z,4.10
2023-11-07T13:28:22.358Z,3.90
2023-11-07T13:30:49.672Z,3.60
2023-11-07T13:33:17.205Z,4.20
2023-11-07T13:35:49.090Z,4.50
2023-11-07T13:38:18.132Z,4.60
2023-11-07T13:40:46.634Z,5.00
2023-11-07T13:43:14.312Z,5.20
2023-11-07T13:45:41.682Z,5.20
2023-11-07T13:48:10.583Z,5.00
2023-11-07T13:50:37.900Z,4.90
2023-11-07T13:53:05.295Z,4.90
2023-11-07T13:55:35.671Z,4.80
2023-11-07T13:58:03.644Z,4.90
2023-11-07T14:00:31.027Z,4.90
2023-11-07T14:02:58.530Z,4.90
2023-11-07T14:05:25.739Z,4.80
2023-11-07T14:07:53.151Z,4.80
2023-11-07T14:10:23.273Z,4.80
2023-11-07T14:12:53.650Z,4.70
2023-11-07T14:15:32.596Z,4.70
2023-11-07T14:18:01.044Z,4.70
2023-11-07T14:20:33.087Z,4.80
2023-11-07T14:23:00.380Z,4.70
2023-11-07T14:25:32.897Z,4.80
2023-11-07T14:28:05.872Z,4.90
2023-11-07T14:30:39.715Z,5.10
2023-11-07T14:33:08.825Z,5.10
2023-11-07T14:35:36.119Z,5.30
2023-11-07T14:38:04.179Z,5.10
2023-11-07T14:40:32.241Z,5.10
2023-11-07T14:42:59.890Z,5.10
2023-11-07T14:45:26.947Z,5.10
2023-11-07T14:47:54.622Z,5.20
2023-11-07T14:50:22.162Z,5.20
2023-11-07T14:52:49.233Z,5.30
2023-11-07T14:55:20.923Z,5.40
2023-11-07T14:57:49.897Z,5.20
2023-11-07T15:00:25.650Z,5.20
2023-11-07T15:02:54.221Z,5.30
2023-11-07T15:05:21.314Z,5.30
2023-11-07T15:07:48.411Z,5.30
2023-11-07T15:10:15.544Z,5.40
2023-11-07T15:12:42.491Z,5.40
2023-11-07T15:15:11.717Z,5.40
2023-11-07T15:17:40.101Z,5.40
2023-11-07T15:20:11.125Z,5.40
2023-11-07T15:22:38.789Z,5.40
2023-11-07T15:25:08.937Z,5.50
2023-11-07T15:27:35.936Z,5.30
2023-11-07T15:30:04.677Z,5.40
2023-11-07T15:32:31.755Z,5.40
2023-11-07T15:34:58.985Z,5.50
2023-11-07T15:37:27.134Z,5.50
2023-11-07T15:39:54.378Z,5.50
2023-11-07T15:42:23.058Z,5.50
2023-11-07T15:44:51.932Z,5.50
2023-11-07T15:47:19.036Z,5.40
2023-11-07T15:49:46.116Z,5.40
2023-11-07T15:52:14.066Z,5.50
2023-11-07T15:54:40.992Z,5.50
2023-11-07T15:57:08.944Z,5.40
2023-11-07T15:59:36.931Z,5.40
2023-11-07T16:02:04.108Z,5.50
2023-11-07T16:04:31.172Z,5.50
2023-11-07T16:06:59.762Z,5.70
2023-11-07T16:09:26.744Z,5.70
2023-11-07T16:11:54.664Z,5.70
2023-11-07T16:14:21.902Z,5.50
2023-11-07T16:16:49.435Z,5.50
2023-11-07T16:19:16.631Z,5.60
2023-11-07T16:21:44.451Z,5.50
2023-11-07T16:24:13.621Z,5.70
2023-11-07T16:26:40.763Z,5.70
2023-11-07T16:29:08.510Z,5.70
2023-11-07T16:31:38.388Z,5.70
2023-11-07T16:34:05.459Z,5.70
2023-11-07T16:36:32.409Z,6.20
2023-11-07T16:38:59.755Z,5.80
2023-11-07T16:41:26.969Z,6.00
2023-11-07T16:43:54.066Z,6.10
2023-11-07T16:46:21.110Z,6.30
2023-11-07T16:48:48.355Z,6.30
2023-11-07T16:51:16.103Z,6.40
2023-11-07T16:53:43.857Z,6.40
2023-11-07T16:56:10.997Z,6.50
2023-11-07T16:58:38.056Z,6.40
2023-11-07T17:01:05.469Z,6.30
2023-11-07T17:03:33.170Z,6.30
2023-11-07T17:06:00.855Z,6.20
2023-11-07T17:08:28.421Z,6.20
2023-11-07T17:10:55.528Z,6.20
2023-11-07T17:13:27.435Z,6.10
2023-11-07T17:15:55.310Z,6.10
2023-11-07T17:18:23.022Z,6.20
2023-11-07T17:20:51.887Z,6.30
2023-11-07T17:23:19.011Z,6.30
2023-11-07T17:25:46.544Z,6.30
2023-11-07T17:28:13.975Z,6.40
2023-11-07T17:30:41.932Z,6.30
2023-11-07T17:33:10.099Z,6.30
2023-11-07T17:35:43.028Z,6.40
2023-11-07T17:38:10.773Z,6.40
2023-11-07T17:40:39.831Z,6.40
2023-11-07T17:43:10.668Z,6.60
2023-11-07T17:45:38.842Z,6.70
2023-11-07T17:48:07.724Z,7.00
2023-11-07T17:50:35.715Z,7.00
2023-11-07T17:53:03.431Z,6.90
2023-11-07T17:55:30.329Z,7.00
2023-11-07T17:57:57.593Z,7.10
2023-11-07T18:00:27.288Z,7.00
2023-11-07T18:02:54.692Z,7.00
2023-11-07T18:05:21.893Z,7.00
2023-11-07T18:07:49.520Z,7.10
2023-11-07T18:10:16.912Z,7.20
2023-11-07T18:12:44.122Z,7.20
2023-11-07T18:15:11.278Z,7.10
2023-11-07T18:17:38.624Z,7.10
2023-11-07T18:20:07.463Z,7.10
2023-11-07T18:22:36.574Z,7.20
2023-11-07T18:25:06.961Z,7.30
2023-11-07T18:27:34.335Z,7.40
2023-11-07T18:30:02.569Z,7.30
2023-11-07T18:32:29.713Z,7.30
2023-11-07T18:34:56.826Z,7.50
2023-11-07T18:37:26.123Z,7.50
2023-11-07T18:39:54.148Z,7.50
2023-11-07T18:42:21.744Z,7.50
2023-11-07T18:44:50.979Z,7.40
2023-11-07T18:47:18.622Z,7.50
2023-11-07T18:49:45.673Z,7.60
2023-11-07T18:52:12.803Z,7.50
2023-11-07T18:54:40.300Z,7.50
2023-11-07T18:57:13.066Z,7.70
2023-11-07T18:59:40.532Z,7.50
2023-11-07T19:02:08.274Z,7.60
2023-11-07T19:04:39.234Z,7.50
2023-11-07T19:07:08.337Z,7.60
2023-11-07T19:09:36.522Z,7.60
2023-11-07T19:12:04.024Z,7.80
2023-11-07T19:14:31.464Z,7.90
2023-11-07T19:16:58.676Z,7.90
2023-11-07T19:19:26.119Z,8.00
2023-11-07T19:21:53.459Z,8.10
2023-11-07T19:24:22.261Z,8.20
2023-11-07T19:26:50.296Z,8.40
2023-11-07T19:29:18.072Z,8.50
2023-11-07T19:31:52.773Z,8.60
2023-11-07T19:34:21.910Z,8.60
2023-11-07T19:36:54.222Z,8.70
2023-11-07T19:39:29.437Z,8.80
2023-11-07T19:42:04.006Z,8.90
2023-11-07T19:44:31.864Z,8.90
2023-11-07T19:46:58.821Z,9.00
2023-11-07T19:49:28.861Z,9.10
2023-11-07T19:51:56.572Z,9.30
2023-11-07T19:54:23.525Z,9.30
2023-11-07T19:56:50.622Z,9.40
2023-11-07T19:59:18.351Z,9.40
2023-11-07T20:01:45.374Z,9.40
2023-11-07T20:04:17.277Z,9.40
2023-11-07T20:06:44.476Z,9.60
2023-11-07T20:09:11.796Z,9.60
2023-11-07T20:11:38.907Z,9.60
2023-11-07T20:14:07.084Z,9.50
2023-11-07T20:16:35.403Z,9.60
2023-11-07T20:19:03.577Z,9.60
2023-11-07T20:21:34.143Z,9.70
2023-11-07T20:24:02.453Z,9.80
2023-11-07T20:26:29.422Z,9.90
2023-11-07T20:28:57.062Z,9.90
2023-11-07T20:31:24.391Z,10.00
2023-11-07T20:33:51.753Z,10.00
2023-11-07T20:36:20.484Z,10.20
2023-11-07T20:38:48.558Z,10.20
2023-11-07T20:41:19.898Z,10.20
2023-11-07T20:43:47.849Z,10.20
2023-11-07T20:46:31.071Z,10.20
2023-11-07T20:49:03.485Z,10.30
2023-11-07T20:51:32.483Z,10.30
2023-11-07T20:53:59.749Z,10.50
2023-11-07T20:56:29.735Z,10.80
2023-11-07T20:58:57.867Z,11.00
2023-11-07T21:01:27.476Z,11.10
2023-11-07T21:03:59.406Z,11.20
2023-11-07T21:06:27.150Z,11.10
2023-11-07T21:08:54.762Z,12.20
2023-11-07T21:11:24.420Z,11.30
2023-11-07T21:13:52.179Z,11.20
2023-11-07T21:16:19.825Z,11.30
2023-11-07T21:18:47.962Z,11.30
2023-11-07T21:21:15.462Z,11.60
2023-11-07T21:23:42.435Z,11.60
2023-11-07T21:26:09.407Z,11.60
2023-11-07T21:28:36.542Z,11.70
2023-11-07T21:31:06.168Z,11.60
2023-11-07T21:33:33.689Z,11.70
2023-11-07T21:36:00.785Z,11.70
2023-11-07T21:38:28.692Z,11.60
2023-11-07T21:40:56.089Z,11.90
2023-11-07T21:43:23.196Z,12.00
2023-11-07T21:45:52.739Z,12.00
2023-11-07T21:48:22.255Z,12.00
2023-11-07T21:50:49.682Z,12.20
2023-11-07T21:53:16.759Z,12.30
2023-11-07T21:55:43.668Z,12.30
2023-11-07T21:58:11.137Z,12.50
2023-11-07T22:00:38.392Z,12.80
2023-11-07T22:03:05.667Z,12.80
2023-11-07T22:05:32.918Z,13.00
2023-11-07T22:07:59.998Z,13.10
2023-11-07T22:10:27.465Z,13.40
2023-11-07T22:12:55.182Z,13.40
2023-11-07T22:15:22.317Z,13.40
2023-11-07T22:17:49.294Z,13.70
2023-11-07T22:20:16.752Z,13.70
2023-11-07T22:22:44.922Z,13.80
2023-11-07T22:25:12.404Z,14.00
2023-11-07T22:27:40.489Z,14.20
2023-11-07T22:30:11.421Z,14.40
2023-11-07T22:32:39.232Z,14.40
2023-11-07T22:35:06.787Z,14.60
2023-11-07T22:37:34.739Z,14.60
2023-11-07T22:40:01.607Z,14.70
2023-11-07T22:42:28.947Z,14.70
2023-11-07T22:44:56.188Z,14.70
2023-11-07T22:47:23.683Z,14.60
2023-11-07T22:49:50.683Z,14.70
2023-11-07T22:52:17.663Z,14.60
2023-11-07T22:54:44.883Z,14.80
2023-11-07T22:57:11.872Z,14.80
2023-11-07T22:59:39.510Z,14.90
2023-11-07T23:02:06.746Z,14.90
2023-11-07T23:04:33.840Z,14.90
2023-11-07T23:07:00.975Z,14.80
2023-11-07T23:09:28.100Z,14.80
2023-11-07T23:11:56.825Z,14.70
2023-11-07T23:14:23.955Z,14.60
2023-11-07T23:16:51.696Z,14.60
2023-11-07T23:19:18.665Z,14.60
2023-11-07T23:21:45.661Z,14.60
2023-11-07T23:24:12.692Z,14.60
2023-11-07T23:26:47.822Z,14.60
2023-11-07T23:29:15.824Z,14.50
2023-11-07T23:31:42.843Z,14.40
2023-11-07T23:34:14.147Z,14.50
2023-11-07T23:36:41.130Z,14.60
2023-11-07T23:39:11.996Z,14.70
2023-11-07T23:41:39.423Z,14.90
2023-11-07T23:44:06.703Z,15.00
2023-11-07T23:46:35.116Z,15.20
2023-11-07T23:49:02.813Z,15.30
2023-11-07T23:51:29.858Z,15.30
2023-11-07T23:53:56.844Z,15.40
2023-11-07T23:56:23.789Z,15.50
2023-11-07T23:58:51.704Z,16.60
